RÉSULTATS    Challenge Orléans Métropole - Édition du 14/06/2019

129 participants - 107 Hommes - 22 Femmes
0 licenciés (0%) - 129 non-licenciés (100%)

Temps moyen : 00:38:08




Pos. Temps Nom - Prénom Club Dossard Catégorie km/h Tps CanoeTps VeloTps CaP
34 00:34:41 SALIMA CHERIF 3F CENTRE VAL DE LOIRE 103 REM (9 / 69) 15.7 00:11:4600:10:1100:12:45
123 00:46:44 LES POL'ETTE ASTOM 6 REF (17 / 22) 11.6 00:13:4200:15:3700:17:26
104 00:41:57 RH ASTOM 26 REM (60 / 69) 13.0 00:13:0200:11:0500:17:52
95 00:40:55 LA DREAM TEAM ASTOM 95 REM (53 / 69) 13.3 00:11:2600:10:1700:19:13
88 00:40:04 IEP 3 ASTOM 29 REM (47 / 69) 13.6 00:12:1100:11:0200:16:52
80 00:39:34 IEP2 ASTOM 28 REM (43 / 69) 13.8 00:12:2000:09:3900:17:35
77 00:39:22 ASTOM 20 ASTOM 94 REM (40 / 69) 13.8 00:11:1300:10:5000:17:19
75 00:39:11 ADS ASTOM 9 REM (38 / 69) 13.9 00:12:2500:11:0400:15:44
72 00:38:44 CFA LES FILLES ASTOM 12 REF (3 / 22) 14.1 00:13:0000:10:0700:15:37
71 00:38:37 PLANIFORME ASTOM 2 REM (35 / 69) 14.1 00:11:2300:13:2400:13:51
70 00:38:37 FORTISSIM'EAU ASTOM 7 REM (34 / 69) 14.1 00:09:41
60 00:37:45 AMÉNAGEMENT URBAIN 1 ASTOM 3 REM (28 / 69) 14.4 00:10:2100:10:5600:16:30
59 00:37:34 LES 4 MOUSQUETAIRES ASTOM 5 REH (31 / 38) 14.5 00:11:4400:10:3100:15:20
44 00:35:51 IEP 1 ASTOM 27 REM (17 / 69) 15.2 00:09:5000:10:1900:15:44
42 00:35:36 GEPPETT'EAU ASTOM 8 REM (16 / 69) 15.3 00:10:4100:09:2500:15:31
40 00:35:24 AMENAGEMENT URBAIN 2 ASTOM 4 REM (14 / 69) 15.4 00:11:0100:10:2200:14:02
39 00:35:20 IEP 4 ASTOM 30 REM (13 / 69) 15.4 00:10:1700:08:3200:16:32
30 00:33:51 LA COM'O ASTOM 1 REM (7 / 69) 16.1 00:09:0800:08:5300:15:50
15 00:32:23 LES CULS NUS ASTOM 10 REM (4 / 69) 16.8 00:09:5900:08:0200:14:23
13 00:31:30 IEP 5 ASTOM 31 REM (3 / 69) 17.3 00:09:5100:08:5900:12:40
11 00:30:59 CFA1 ASTOM 11 REH (9 / 38) 17.6 00:09:2100:08:1000:13:30
76 00:39:19 NADIA DUVEAU ATELIER DUVEAU DAVIM 111 REM (39 / 69) 13.8 00:12:0500:10:2400:16:52
126 00:47:38 CNM 2 BBRAUN CENTRE NEPHROLOGIE MONT 14 REF (20 / 22) 11.4 00:14:4600:15:2800:17:26
125 00:47:34 CNM 1 BBRAUN CENTRE NEPHROLOGIE MONT 13 REF (19 / 22) 11.4 00:15:3600:13:3500:18:24
121 00:46:00 CNM 3 BBRAUN CENTRE NEPHROLOGIE MONT 15 REF (16 / 22) 11.8 00:12:2600:12:3800:20:57